createdAt,value
2018-06-08T00:02:02.249Z,23.23
2018-06-08T00:04:32.451Z,24.77
2018-06-08T00:07:02.772Z,26.67
2018-06-08T00:09:33.351Z,28.90
2018-06-08T00:12:04.221Z,27.60
2018-06-08T00:14:34.816Z,29.73
2018-06-08T00:17:05.295Z,31.37
2018-06-08T00:19:35.414Z,32.10
2018-06-08T00:22:06.211Z,30.10
2018-06-08T00:24:36.996Z,29.60
2018-06-08T00:27:07.273Z,28.77
2018-06-08T00:29:37.788Z,29.73
2018-06-08T00:32:09.022Z,31.33
2018-06-08T00:34:39.268Z,30.10
2018-06-08T00:37:09.625Z,33.20
2018-06-08T00:39:40.515Z,31.97
2018-06-08T00:42:11.113Z,29.70
2018-06-08T00:44:41.739Z,35.00
2018-06-08T00:47:11.921Z,30.50
2018-06-08T00:49:42.270Z,31.50
2018-06-08T00:52:12.461Z,32.03
2018-06-08T00:54:43.864Z,30.13
2018-06-08T00:57:14.647Z,32.37
2018-06-08T00:59:44.962Z,33.67
2018-06-08T01:02:15.166Z,34.00
2018-06-08T01:04:46.576Z,32.83
2018-06-08T01:07:16.891Z,34.00
2018-06-08T01:09:47.071Z,35.13
2018-06-08T01:12:17.282Z,35.33
2018-06-08T01:14:47.450Z,35.17
2018-06-08T01:17:17.552Z,36.70
2018-06-08T01:19:47.984Z,37.57
2018-06-08T01:22:18.280Z,36.93
2018-06-08T01:24:48.600Z,36.43
2018-06-08T01:27:18.892Z,38.77
2018-06-08T01:29:49.113Z,38.10
2018-06-08T01:32:19.618Z,37.20
2018-06-08T01:34:49.853Z,38.70
2018-06-08T01:37:20.613Z,36.90
2018-06-08T01:39:50.863Z,36.70
2018-06-08T01:42:21.041Z,39.70
2018-06-08T01:44:51.176Z,39.73
2018-06-08T01:47:22.404Z,40.27
2018-06-08T01:49:52.739Z,38.63
2018-06-08T01:52:22.944Z,38.47
2018-06-08T01:54:53.179Z,38.20
2018-06-08T01:57:24.080Z,39.00
2018-06-08T01:59:55.097Z,36.03
2018-06-08T02:02:25.612Z,37.30
2018-06-08T02:04:56.192Z,38.07
2018-06-08T02:07:27.055Z,38.20
2018-06-08T02:09:57.292Z,38.57
2018-06-08T02:12:27.574Z,40.10
2018-06-08T02:14:57.969Z,40.13
2018-06-08T02:17:28.468Z,37.30
2018-06-08T02:19:58.669Z,40.50
2018-06-08T02:22:28.893Z,42.07
2018-06-08T02:24:59.445Z,44.57
2018-06-08T02:27:29.733Z,37.83
2018-06-08T02:29:59.748Z,44.80
2018-06-08T02:32:30.116Z,43.40
2018-06-08T02:35:00.859Z,42.50
2018-06-08T02:37:31.207Z,44.23
2018-06-08T02:40:02.376Z,41.58
2018-06-08T02:42:32.621Z,44.15
2018-06-08T02:45:02.704Z,40.93
2018-06-08T02:47:32.861Z,40.63
2018-06-08T02:50:03.486Z,40.47
2018-06-08T02:52:33.948Z,38.27
2018-06-08T02:55:05.141Z,40.67
2018-06-08T02:57:35.365Z,41.13
2018-06-08T03:00:05.724Z,40.47
2018-06-08T03:02:35.982Z,36.43
2018-06-08T03:05:06.332Z,39.67
2018-06-08T03:07:36.605Z,37.97
2018-06-08T03:10:06.963Z,38.33
2018-06-08T03:12:37.272Z,37.03
2018-06-08T03:15:07.618Z,39.87
2018-06-08T03:17:37.772Z,38.60
2018-06-08T03:20:08.448Z,41.90
2018-06-08T03:22:38.679Z,37.53
2018-06-08T03:25:09.532Z,37.63
2018-06-08T03:27:40.139Z,34.80
2018-06-08T03:30:10.409Z,34.50
2018-06-08T03:32:40.628Z,39.00
2018-06-08T03:35:10.757Z,36.07
2018-06-08T03:37:41.225Z,32.57
2018-06-08T03:40:11.344Z,37.90
2018-06-08T03:42:41.500Z,40.03
2018-06-08T03:45:11.711Z,36.30
2018-06-08T03:47:43.108Z,38.80
2018-06-08T03:50:13.268Z,39.07
2018-06-08T03:52:44.931Z,37.87
2018-06-08T03:55:15.144Z,40.30
2018-06-08T03:57:46.021Z,39.53
2018-06-08T04:00:16.204Z,39.33
2018-06-08T04:02:47.124Z,37.47
2018-06-08T04:05:17.671Z,35.37
2018-06-08T04:07:48.649Z,37.07
2018-06-08T04:10:18.887Z,38.83
2018-06-08T04:12:50.851Z,36.30
2018-06-08T04:15:21.251Z,36.90
2018-06-08T04:17:51.729Z,40.27
2018-06-08T04:20:22.024Z,39.00
2018-06-08T04:22:52.604Z,43.77
2018-06-08T04:25:22.827Z,39.17
2018-06-08T04:27:53.279Z,36.07
2018-06-08T04:30:24.352Z,35.17
2018-06-08T04:32:54.750Z,35.37
2018-06-08T04:35:24.928Z,31.90
2018-06-08T04:37:55.317Z,29.90
2018-06-08T04:40:26.220Z,31.50
2018-06-08T04:42:56.477Z,31.77
2018-06-08T04:45:26.645Z,30.33
2018-06-08T04:47:57.529Z,31.13
2018-06-08T04:50:28.089Z,30.00
2018-06-08T04:52:59.593Z,32.20
2018-06-08T04:55:29.738Z,33.40
2018-06-08T04:57:59.981Z,35.97
2018-06-08T05:00:30.039Z,34.53
2018-06-08T05:03:00.464Z,36.47
2018-06-08T05:05:30.729Z,34.13
2018-06-08T05:08:02.505Z,35.10
2018-06-08T05:10:32.933Z,31.40
2018-06-08T05:13:03.176Z,32.60
2018-06-08T05:15:33.566Z,32.07
2018-06-08T05:18:04.274Z,27.97
2018-06-08T05:20:34.512Z,32.03
2018-06-08T05:23:05.758Z,30.53
2018-06-08T05:25:35.972Z,30.23
2018-06-08T05:28:07.448Z,30.77
2018-06-08T05:30:37.696Z,28.70
2018-06-08T05:33:07.827Z,27.83
2018-06-08T05:35:38.677Z,28.00
2018-06-08T05:38:08.973Z,28.77
2018-06-08T05:40:39.295Z,27.77
2018-06-08T05:43:09.570Z,27.73
2018-06-08T05:45:40.661Z,28.80
2018-06-08T05:48:10.912Z,29.70
2018-06-08T05:50:41.005Z,31.70
2018-06-08T05:53:11.944Z,27.50
2018-06-08T05:55:42.186Z,27.07
2018-06-08T05:58:12.678Z,26.80
2018-06-08T06:00:43.032Z,27.57
2018-06-08T06:03:13.515Z,30.20
2018-06-08T06:05:43.839Z,29.43
2018-06-08T06:08:14.045Z,26.70
2018-06-08T06:10:44.205Z,27.47
2018-06-08T06:13:14.520Z,28.33
2018-06-08T06:15:44.752Z,26.83
2018-06-08T06:18:15.377Z,25.67
2018-06-08T06:20:46.010Z,28.07
2018-06-08T06:23:16.180Z,28.57
2018-06-08T06:25:47.084Z,26.33
2018-06-08T06:28:17.543Z,24.23
2018-06-08T06:30:47.716Z,25.13
2018-06-08T06:33:17.659Z,25.63
2018-06-08T06:35:47.881Z,26.20
2018-06-08T06:38:18.132Z,24.47
2018-06-08T06:40:48.296Z,25.87
2018-06-08T06:43:18.805Z,26.20
2018-06-08T06:45:49.226Z,27.20
2018-06-08T06:48:19.712Z,25.10
2018-06-08T06:50:50.400Z,27.40
2018-06-08T06:53:20.965Z,30.47
2018-06-08T06:55:51.271Z,29.00
2018-06-08T06:58:22.093Z,29.77
2018-06-08T07:00:52.297Z,29.40
2018-06-08T07:03:22.895Z,28.20
2018-06-08T07:05:52.993Z,28.20
2018-06-08T07:08:23.492Z,28.93
2018-06-08T07:10:54.008Z,28.87
2018-06-08T07:13:24.332Z,28.73
2018-06-08T07:15:54.685Z,29.30
2018-06-08T07:18:25.084Z,31.33
2018-06-08T07:20:56.245Z,31.00
2018-06-08T07:23:26.312Z,31.73
2018-06-08T07:25:56.537Z,48.50
2018-06-08T07:28:26.736Z,41.47
2018-06-08T07:30:56.932Z,36.20
2018-06-08T07:33:27.251Z,38.80
2018-06-08T07:35:57.468Z,28.97
2018-06-08T07:38:27.624Z,45.70
2018-06-08T07:40:57.839Z,35.83
2018-06-08T07:43:29.005Z,47.83
2018-06-08T07:45:59.886Z,51.17
2018-06-08T07:48:30.683Z,46.03
2018-06-08T07:51:01.277Z,43.10
2018-06-08T07:53:31.721Z,47.27
2018-06-08T07:56:02.336Z,51.50
2018-06-08T07:58:32.960Z,33.60
2018-06-08T08:01:03.184Z,29.70
2018-06-08T08:03:33.433Z,31.07
2018-06-08T08:06:03.954Z,39.03
2018-06-08T08:08:34.192Z,31.33
2018-06-08T08:11:04.369Z,23.90
2018-06-08T08:13:34.565Z,23.40
2018-06-08T08:16:05.963Z,27.30
2018-06-08T08:18:36.090Z,22.13
2018-06-08T08:21:07.731Z,24.80
2018-06-08T08:23:37.947Z,34.57
2018-06-08T08:26:08.220Z,21.73
2018-06-08T08:28:39.353Z,29.30
2018-06-08T08:31:09.626Z,23.07
2018-06-08T08:33:39.914Z,24.47
2018-06-08T08:36:11.082Z,23.50
2018-06-08T08:38:41.980Z,50.27
2018-06-08T08:41:12.611Z,32.47
2018-06-08T08:43:42.980Z,45.30
2018-06-08T08:46:13.350Z,32.27
2018-06-08T08:48:43.837Z,24.80
2018-06-08T08:51:14.284Z,25.60
2018-06-08T08:53:44.583Z,27.53
2018-06-08T08:56:15.410Z,26.00
2018-06-08T08:58:45.489Z,26.47
2018-06-08T09:01:15.831Z,27.17
2018-06-08T09:03:46.497Z,30.73
2018-06-08T09:06:16.664Z,28.40
2018-06-08T09:08:46.855Z,30.60
2018-06-08T09:11:17.555Z,24.90
2018-06-08T09:13:47.374Z,26.30
2018-06-08T09:16:17.644Z,24.87
2018-06-08T09:18:47.901Z,39.53
2018-06-08T09:21:18.137Z,31.50
2018-06-08T09:23:49.317Z,32.43
2018-06-08T09:26:19.916Z,27.43
2018-06-08T09:28:50.379Z,32.97
2018-06-08T09:31:20.621Z,33.00
2018-06-08T09:33:50.915Z,27.77
2018-06-08T09:36:21.892Z,26.43
2018-06-08T09:38:52.186Z,23.67
2018-06-08T09:41:22.670Z,20.53
2018-06-08T09:43:53.492Z,22.00
2018-06-08T09:46:24.257Z,24.20
2018-06-08T09:48:55.117Z,21.90
2018-06-08T09:51:25.188Z,18.83
2018-06-08T09:53:56.048Z,21.90
2018-06-08T09:56:27.052Z,20.10
2018-06-08T09:58:57.777Z,17.40
2018-06-08T10:01:28.087Z,18.70
2018-06-08T10:03:58.295Z,18.87
2018-06-08T10:06:28.637Z,23.63
2018-06-08T10:08:58.940Z,18.33
2018-06-08T10:11:29.863Z,17.33
2018-06-08T10:14:00.603Z,14.90
2018-06-08T10:16:31.658Z,15.67
2018-06-08T10:19:02.103Z,14.17
2018-06-08T10:21:32.314Z,15.17
2018-06-08T10:24:03.780Z,11.67
2018-06-08T10:26:33.931Z,14.70
2018-06-08T10:29:04.416Z,15.50
2018-06-08T10:31:35.128Z,13.00
2018-06-08T10:34:05.423Z,12.13
2018-06-08T10:36:34.449Z,49.33
2018-06-08T10:39:03.616Z,76.20
2018-06-08T10:41:32.665Z,41.67
2018-06-08T10:44:01.731Z,123.10
2018-06-08T10:46:30.971Z,67.63
2018-06-08T10:49:00.022Z,97.70
2018-06-08T10:51:29.191Z,79.47
2018-06-08T10:53:58.208Z,46.47
2018-06-08T10:56:27.332Z,18.63
2018-06-08T10:58:56.345Z,36.53
2018-06-08T11:01:25.401Z,16.73
2018-06-08T11:03:54.694Z,13.17
2018-06-08T11:06:23.901Z,15.67
2018-06-08T11:08:53.760Z,13.40
2018-06-08T11:11:22.812Z,14.70
2018-06-08T11:13:51.985Z,15.83
2018-06-08T11:16:21.104Z,16.10
2018-06-08T11:18:50.700Z,13.50
2018-06-08T11:21:19.828Z,13.27
2018-06-08T11:23:49.388Z,16.03
2018-06-08T11:26:18.850Z,14.10
2018-06-08T11:28:48.459Z,12.40
2018-06-08T11:31:17.476Z,11.87
2018-06-08T11:33:47.110Z,12.40
2018-06-08T11:36:16.319Z,10.67
2018-06-08T11:38:45.455Z,11.17
2018-06-08T11:41:14.714Z,10.90
2018-06-08T11:43:43.937Z,10.53
2018-06-08T11:46:12.904Z,10.70
2018-06-08T11:48:42.697Z,10.57
2018-06-08T11:51:11.828Z,12.73
2018-06-08T11:53:40.917Z,10.50
2018-06-08T11:56:10.036Z,11.67
2018-06-08T11:58:38.996Z,11.10
2018-06-08T12:01:08.580Z,18.27
2018-06-08T12:03:37.688Z,10.43
2018-06-08T12:06:06.712Z,9.47
2018-06-08T12:08:36.136Z,9.83
2018-06-08T12:11:05.211Z,10.77
2018-06-08T12:13:34.305Z,12.23
2018-06-08T12:16:03.773Z,12.23
2018-06-08T12:18:33.024Z,11.60
2018-06-08T12:21:02.083Z,10.30
2018-06-08T12:23:31.308Z,10.47
2018-06-08T12:26:01.216Z,10.33
2018-06-08T12:28:30.810Z,10.63
2018-06-08T12:30:59.905Z,9.97
2018-06-08T12:33:29.997Z,8.23
2018-06-08T12:35:59.113Z,10.57
2018-06-08T12:38:28.292Z,9.03
2018-06-08T12:40:57.520Z,8.30
2018-06-08T12:43:26.580Z,8.20
2018-06-08T12:45:55.985Z,8.40
2018-06-08T12:48:24.988Z,7.33
2018-06-08T12:50:54.734Z,6.87
2018-06-08T12:53:23.803Z,9.10
2018-06-08T12:55:53.149Z,9.40
2018-06-08T12:58:22.617Z,8.47
2018-06-08T13:00:51.690Z,9.53
2018-06-08T13:03:20.810Z,8.20
2018-06-08T13:05:50.608Z,7.33
2018-06-08T13:08:19.668Z,8.23
2018-06-08T13:10:48.694Z,7.40
2018-06-08T13:13:17.787Z,7.97
2018-06-08T13:15:46.958Z,8.47
2018-06-08T13:18:16.070Z,7.33
2018-06-08T13:20:45.186Z,6.23
2018-06-08T13:23:14.362Z,7.10
2018-06-08T13:25:43.515Z,6.43
2018-06-08T13:28:12.654Z,6.20
2018-06-08T13:30:41.805Z,7.67
2018-06-08T13:33:10.888Z,6.80
2018-06-08T13:35:39.867Z,6.33
2018-06-08T13:38:09.468Z,6.17
2018-06-08T13:40:38.583Z,6.20
2018-06-08T13:43:08.136Z,6.33
2018-06-08T13:45:37.286Z,5.90
2018-06-08T13:48:06.352Z,6.93
2018-06-08T13:50:35.460Z,6.13
2018-06-08T13:53:04.324Z,6.77
2018-06-08T13:55:33.557Z,6.60
2018-06-08T13:58:02.942Z,6.50
2018-06-08T14:00:32.657Z,6.30
2018-06-08T14:03:01.846Z,6.57
2018-06-08T14:05:30.929Z,5.83
2018-06-08T14:07:59.936Z,6.50
2018-06-08T14:10:29.124Z,6.73
2018-06-08T14:12:58.410Z,5.70
2018-06-08T14:15:27.496Z,5.90
2018-06-08T14:17:57.248Z,6.87
2018-06-08T14:20:27.033Z,6.50
2018-06-08T14:22:57.264Z,6.70
2018-06-08T14:25:26.805Z,6.93
2018-06-08T14:27:56.424Z,8.40
2018-06-08T14:30:25.737Z,6.90
2018-06-08T14:32:54.920Z,6.77
2018-06-08T14:35:24.072Z,8.40
2018-06-08T14:37:53.959Z,6.60
2018-06-08T14:40:23.495Z,7.57
2018-06-08T14:42:53.258Z,7.30
2018-06-08T14:45:22.376Z,6.73
2018-06-08T14:47:51.512Z,7.27
2018-06-08T14:50:20.477Z,6.73
2018-06-08T14:52:50.366Z,6.47
2018-06-08T14:55:19.493Z,5.23
2018-06-08T14:57:48.736Z,5.87
2018-06-08T15:00:18.328Z,5.43
2018-06-08T15:02:47.474Z,5.37
2018-06-08T15:05:16.888Z,5.80
2018-06-08T15:07:46.193Z,5.60
2018-06-08T15:10:15.216Z,5.70
2018-06-08T15:12:44.392Z,6.60
2018-06-08T15:15:13.875Z,5.60
2018-06-08T15:17:43.743Z,5.57
2018-06-08T15:20:13.373Z,5.40
2018-06-08T15:22:42.633Z,5.50
2018-06-08T15:25:11.844Z,6.90
2018-06-08T15:27:41.319Z,7.60
2018-06-08T15:30:10.616Z,7.90
2018-06-08T15:32:40.211Z,5.83
2018-06-08T15:35:09.448Z,5.80
2018-06-08T15:37:38.801Z,6.10
2018-06-08T15:40:07.808Z,5.80
2018-06-08T15:42:37.398Z,6.00
2018-06-08T15:45:07.154Z,5.50
2018-06-08T15:47:37.032Z,5.20
2018-06-08T15:50:06.172Z,5.80
2018-06-08T15:52:35.619Z,5.30
2018-06-08T15:55:04.965Z,6.30
2018-06-08T15:57:35.024Z,5.80
2018-06-08T16:00:04.159Z,5.73
2018-06-08T16:02:34.033Z,5.77
2018-06-08T16:05:03.194Z,5.60
2018-06-08T16:07:32.291Z,5.80
2018-06-08T16:10:02.155Z,5.40
2018-06-08T16:12:31.299Z,5.40
2018-06-08T16:15:00.884Z,5.10
2018-06-08T16:17:29.912Z,5.37
2018-06-08T16:19:59.061Z,5.90
2018-06-08T16:22:28.345Z,4.83
2018-06-08T16:24:58.671Z,6.47
2018-06-08T16:27:27.844Z,5.47
2018-06-08T16:29:57.291Z,5.93
2018-06-08T16:32:27.031Z,6.00
2018-06-08T16:34:56.194Z,6.40
2018-06-08T16:37:25.438Z,5.30
2018-06-08T16:39:54.496Z,4.97
2018-06-08T16:42:24.192Z,4.70
2018-06-08T16:44:53.811Z,5.47
2018-06-08T16:47:22.985Z,5.67
2018-06-08T16:49:52.640Z,5.37
2018-06-08T16:52:21.761Z,5.40
2018-06-08T16:54:51.000Z,5.57
2018-06-08T16:57:20.178Z,6.00
2018-06-08T16:59:50.011Z,5.50
2018-06-08T17:02:19.130Z,6.40
2018-06-08T17:04:48.180Z,6.90
2018-06-08T17:07:17.412Z,5.73
2018-06-08T17:09:46.592Z,5.77
2018-06-08T17:12:16.373Z,5.30
2018-06-08T17:14:45.547Z,5.50
2018-06-08T17:17:15.289Z,5.10
2018-06-08T17:19:44.738Z,4.70
2018-06-08T17:22:13.804Z,5.87
2018-06-08T17:24:42.912Z,5.90
2018-06-08T17:27:12.013Z,4.57
2018-06-08T17:29:41.090Z,5.90
2018-06-08T17:32:10.142Z,5.70
2018-06-08T17:34:39.812Z,5.87
2018-06-08T17:37:08.902Z,4.60
2018-06-08T17:39:38.529Z,6.00
2018-06-08T17:42:07.500Z,7.13
2018-06-08T17:44:36.616Z,6.17
2018-06-08T17:47:05.567Z,6.13
2018-06-08T17:49:35.217Z,6.20
2018-06-08T17:52:04.293Z,12.40
2018-06-08T17:54:34.352Z,5.80
2018-06-08T17:57:03.537Z,6.20
2018-06-08T17:59:32.598Z,6.27
2018-06-08T18:02:02.104Z,5.40
2018-06-08T18:04:31.192Z,5.67
2018-06-08T18:07:00.421Z,10.90
2018-06-08T18:09:29.474Z,8.50
2018-06-08T18:11:58.716Z,7.10
2018-06-08T18:14:28.029Z,5.23
2018-06-08T18:16:57.828Z,5.90
2018-06-08T18:19:26.799Z,5.90
2018-06-08T18:21:56.404Z,5.10
2018-06-08T18:24:25.601Z,6.07
2018-06-08T18:26:54.577Z,6.00
2018-06-08T18:29:23.892Z,6.17
2018-06-08T18:31:53.407Z,5.70
2018-06-08T18:34:22.943Z,5.70
2018-06-08T18:36:52.117Z,5.37
2018-06-08T18:39:21.233Z,7.10
2018-06-08T18:41:50.295Z,11.57
2018-06-08T18:44:19.485Z,6.60
2018-06-08T18:46:48.653Z,8.73
2018-06-08T18:49:17.773Z,7.57
2018-06-08T18:51:47.758Z,8.13
2018-06-08T18:54:16.952Z,6.70
2018-06-08T18:56:46.092Z,5.50
2018-06-08T18:59:15.324Z,7.17
2018-06-08T19:01:44.724Z,5.93
2018-06-08T19:04:13.904Z,6.70
2018-06-08T19:06:43.056Z,7.53
2018-06-08T19:09:12.321Z,5.97
2018-06-08T19:11:42.121Z,7.20
2018-06-08T19:14:11.878Z,7.10
2018-06-08T19:16:41.693Z,6.80
2018-06-08T19:19:11.724Z,6.77
2018-06-08T19:21:41.353Z,6.60
2018-06-08T19:24:11.857Z,17.23
2018-06-08T19:26:41.038Z,7.03
2018-06-08T19:29:10.527Z,7.27
2018-06-08T19:31:40.418Z,7.50
2018-06-08T19:34:12.110Z,7.40
2018-06-08T19:36:41.601Z,6.77
2018-06-08T19:39:11.693Z,6.60
2018-06-08T19:41:42.520Z,7.23
2018-06-08T19:44:12.787Z,6.93
2018-06-08T19:46:43.016Z,6.60
2018-06-08T19:49:14.139Z,6.40
2018-06-08T19:51:44.097Z,5.30
2018-06-08T19:54:14.193Z,6.57
2018-06-08T19:56:44.201Z,5.40
2018-06-08T19:59:13.860Z,5.27
2018-06-08T20:01:43.025Z,5.77
2018-06-08T20:04:12.765Z,5.90
2018-06-08T20:06:42.241Z,4.97
2018-06-08T20:09:11.712Z,5.60
2018-06-08T20:11:41.240Z,5.73
2018-06-08T20:14:11.203Z,6.30
2018-06-08T20:16:42.233Z,5.00
2018-06-08T20:19:12.679Z,5.60
2018-06-08T20:21:42.229Z,5.10
2018-06-08T20:24:11.591Z,5.43
2018-06-08T20:26:41.184Z,4.83
2018-06-08T20:29:10.464Z,5.67
2018-06-08T20:31:39.699Z,5.77
2018-06-08T20:34:09.383Z,5.50
2018-06-08T20:36:38.669Z,5.37
2018-06-08T20:39:09.068Z,5.37
2018-06-08T20:41:39.766Z,5.43
2018-06-08T20:44:09.488Z,5.73
2018-06-08T20:46:39.245Z,4.80
2018-06-08T20:49:08.569Z,4.03
2018-06-08T20:51:38.908Z,5.10
2018-06-08T20:54:08.336Z,5.30
2018-06-08T20:56:38.056Z,4.53
2018-06-08T20:59:08.168Z,3.70
2018-06-08T21:01:37.585Z,3.90
2018-06-08T21:04:07.425Z,4.63
2018-06-08T21:06:37.407Z,4.20
2018-06-08T21:09:07.704Z,4.80
2018-06-08T21:11:37.787Z,4.07
2018-06-08T21:14:07.065Z,4.33
2018-06-08T21:16:36.169Z,3.80
2018-06-08T21:19:05.526Z,5.77
2018-06-08T21:21:35.327Z,3.83
2018-06-08T21:24:05.064Z,3.17
2018-06-08T21:26:35.118Z,3.30
2018-06-08T21:29:04.509Z,4.10
2018-06-08T21:31:34.612Z,3.37
2018-06-08T21:34:03.863Z,3.70
2018-06-08T21:36:33.693Z,3.83
2018-06-08T21:39:02.902Z,4.10
2018-06-08T21:41:32.045Z,3.27
2018-06-08T21:44:01.482Z,4.10
2018-06-08T21:46:30.765Z,4.30
2018-06-08T21:48:59.593Z,3.80
2018-06-08T21:51:28.814Z,4.37
2018-06-08T21:53:58.224Z,3.80
2018-06-08T21:56:28.082Z,4.13
2018-06-08T21:58:57.248Z,4.50
2018-06-08T22:01:26.592Z,4.57
2018-06-08T22:03:56.160Z,3.90
2018-06-08T22:06:25.925Z,4.53
2018-06-08T22:08:55.168Z,4.90
2018-06-08T22:11:24.597Z,4.20
2018-06-08T22:13:54.257Z,4.87
2018-06-08T22:16:24.418Z,5.20
2018-06-08T22:18:55.428Z,4.80
2018-06-08T22:21:25.404Z,5.03
2018-06-08T22:23:55.224Z,5.43
2018-06-08T22:26:25.065Z,5.63
2018-06-08T22:28:55.076Z,5.20
2018-06-08T22:31:24.357Z,5.37
2018-06-08T22:33:53.480Z,5.97
2018-06-08T22:36:22.758Z,6.10
2018-06-08T22:38:52.203Z,6.27
2018-06-08T22:41:21.908Z,5.50
2018-06-08T22:43:51.618Z,6.80
2018-06-08T22:46:20.761Z,5.97
2018-06-08T22:48:50.083Z,5.93
2018-06-08T22:51:19.872Z,6.50
2018-06-08T22:53:48.997Z,6.13
2018-06-08T22:56:18.120Z,6.60
2018-06-08T22:58:47.763Z,5.77
2018-06-08T23:01:16.892Z,7.23
2018-06-08T23:03:46.064Z,7.10
2018-06-08T23:06:15.196Z,7.30
2018-06-08T23:08:44.350Z,7.13
2018-06-08T23:11:13.379Z,6.30
2018-06-08T23:13:42.469Z,7.03
2018-06-08T23:16:12.145Z,8.33
2018-06-08T23:18:41.325Z,6.80
2018-06-08T23:21:11.202Z,7.53
2018-06-08T23:23:40.181Z,7.97
2018-06-08T23:26:10.077Z,7.30
2018-06-08T23:28:39.580Z,7.60
2018-06-08T23:31:08.715Z,9.07
2018-06-08T23:33:37.820Z,9.07
2018-06-08T23:36:07.787Z,6.73
2018-06-08T23:38:37.315Z,7.93
2018-06-08T23:41:06.912Z,8.20
2018-06-08T23:43:36.264Z,7.77
2018-06-08T23:46:06.357Z,7.30
2018-06-08T23:48:36.036Z,8.50
2018-06-08T23:51:05.160Z,6.70
2018-06-08T23:53:34.075Z,7.07
2018-06-08T23:56:03.562Z,6.30
2018-06-08T23:58:32.988Z,6.57
